General Aviation Weather

Text Reports

Enter one or more of the following location identifiers separated by a space:

Zip Code, Four-Character ICAO or Three-Character IATA airport codes.

METAR - Aviation Routine Weather Report
KCMY - Sparta, Wisconsin
Updated at 12:55 AM GMT on August 28, 2014 (7:55 PM CDT):
METAR KCMY 280055Z AUTO 00000KT 10SM CLR 19/15 A3012 RMK AO2 T01900152
TAF - Terminal Area Forecast
KCMY - Sparta, Wisconsin
Updated at 12:55 AM GMT on August 28, 2014 (7:55 PM CDT):
No TAF is currently available for this location.
Decoded:
No decoded TAF is available.
PIREP - Pilot Weather Report
KCMY - Sparta, Wisconsin
Updated at 12:55 AM GMT on August 28, 2014 (7:55 PM CDT):
No PIREP is currently available for this location.
AIRMET - Airmens Meteorological Information
KCMY - Sparta, Wisconsin
Updated at 12:55 AM GMT on August 28, 2014 (7:55 PM CDT):
No AIRMET is currently available for this location.
SIGMET - Significant Meteorological Information
KCMY - Sparta, Wisconsin
Updated at 12:55 AM GMT on August 28, 2014 (7:55 PM CDT):
No SIGMET is currently available for this location.
NOTAM - Notice to Airmen
KCMY - Sparta, Wisconsin
Updated at 12:55 AM GMT on August 28, 2014 (7:55 PM CDT):
No NOTAM is currently available for this location.
Forecast Area
KCMY - Sparta, Wisconsin
Updated at 12:55 AM GMT on August 28, 2014 (7:55 PM CDT):
No NOTAM is currently available for this location.
Aviation Weather Maps